メインページ
METAR-TAF:

METAR-TAF

空港 :

Kruger Mpumalanga International Airport

クルーガー国立公園, 南アフリカ共和国

緯度: 25-23-00S, 経度: 31-06-20E, 海抜: 862m

現時点の気象観測

当レポートは50分前の00:00(UTC)に作成
の風 3kt
気温 12°C
湿度 88%
気圧 1033 hPa

METAR: FAKN 240000Z AUTO 19003KT //// // ////// 12/10 Q1033

時間: 02:50 (00:50 UTC)

予報

当レポートは15時間30分前の09:20(UTC)に作成
予報は23日の 10時(UTC)から 23日の 18時(UTC)まで有効
変向風 3kt
視程10km以上
高度2000ftの雲は散在している

TAF: FAKN 230920Z 2310/2318 VRB03KT 9999 SCT020 TX23/2313Z TN13/2318Z

4,000以上の空港の気象観測と天気予報(METAR報とTAF報)

利用可能な観測所は地図上に黄色い丸と赤い丸で示す。

丸の上にカーソルを重ねると観測所名を参照できる。

次にクリックすると気象観測と天気予報を参照できる。

マップの切り替え:黒色「×」印の緑ボタンをクリックして拡大、「-」印の緑ボタンをクリックして縮小、緑色の三角印をクリックして隣りの地図に切り替え


METAR-TAF: